createdAt,value
2018-09-26T00:00:26.988Z,92.80
2018-09-26T00:02:58.089Z,93.39
2018-09-26T00:05:26.230Z,92.73
2018-09-26T00:07:54.362Z,92.97
2018-09-26T00:10:22.536Z,92.97
2018-09-26T00:12:50.664Z,92.79
2018-09-26T00:15:18.797Z,92.76
2018-09-26T00:17:46.905Z,92.94
2018-09-26T00:20:15.034Z,92.94
2018-09-26T00:22:43.212Z,92.93
2018-09-26T00:25:11.350Z,92.73
2018-09-26T00:27:39.475Z,92.52
2018-09-26T00:30:14.384Z,92.51
2018-09-26T00:32:42.529Z,92.41
2018-09-26T00:35:10.625Z,93.13
2018-09-26T00:37:38.806Z,92.77
2018-09-26T00:40:07.341Z,93.24
2018-09-26T00:42:35.453Z,92.21
2018-09-26T00:45:03.565Z,92.61
2018-09-26T00:47:31.704Z,92.30
2018-09-26T00:49:59.861Z,92.21
2018-09-26T00:52:28.027Z,92.54
2018-09-26T00:54:56.182Z,92.39
2018-09-26T00:57:24.375Z,92.22
2018-09-26T00:59:52.509Z,92.32
2018-09-26T01:02:20.648Z,91.99
2018-09-26T01:04:48.780Z,91.67
2018-09-26T01:07:16.919Z,91.33
2018-09-26T01:09:45.028Z,91.57
2018-09-26T01:12:13.226Z,92.34
2018-09-26T01:14:41.364Z,92.03
2018-09-26T01:17:09.533Z,90.95
2018-09-26T01:19:37.688Z,91.37
2018-09-26T01:22:05.816Z,91.03
2018-09-26T01:24:33.942Z,91.65
2018-09-26T01:27:02.061Z,91.47
2018-09-26T01:29:30.181Z,91.87
2018-09-26T01:31:58.340Z,91.43
2018-09-26T01:34:26.492Z,91.37
2018-09-26T01:36:54.589Z,91.33
2018-09-26T01:39:22.700Z,91.66
2018-09-26T01:41:50.844Z,91.23
2018-09-26T01:44:18.957Z,91.01
2018-09-26T01:46:47.132Z,91.22
2018-09-26T01:49:15.304Z,91.30
2018-09-26T01:51:43.440Z,90.96
2018-09-26T01:54:11.561Z,91.07
2018-09-26T01:56:39.692Z,91.23
2018-09-26T01:59:07.792Z,91.33
2018-09-26T02:01:35.924Z,91.66
2018-09-26T02:04:04.047Z,92.14
2018-09-26T02:06:32.176Z,91.78
2018-09-26T02:09:00.305Z,92.24
2018-09-26T02:11:28.436Z,92.15
2018-09-26T02:13:56.556Z,92.20
2018-09-26T02:16:24.664Z,92.58
2018-09-26T02:18:52.742Z,92.82
2018-09-26T02:21:20.951Z,92.76
2018-09-26T02:23:49.127Z,92.97
2018-09-26T02:26:17.212Z,92.90
2018-09-26T02:28:45.356Z,92.81
2018-09-26T02:31:13.488Z,92.47
2018-09-26T02:33:42.416Z,92.74
2018-09-26T02:36:10.523Z,92.25
2018-09-26T02:38:38.689Z,92.66
2018-09-26T02:41:06.790Z,92.52
2018-09-26T02:43:34.900Z,91.73
2018-09-26T02:48:42.832Z,92.03
2018-09-26T02:51:10.999Z,92.41
2018-09-26T02:53:39.170Z,91.22
2018-09-26T02:56:07.312Z,91.59
2018-09-26T02:58:35.441Z,91.03
2018-09-26T03:01:03.545Z,90.59
2018-09-26T03:03:31.657Z,91.05
2018-09-26T03:05:59.810Z,91.26
2018-09-26T03:08:27.912Z,91.69
2018-09-26T03:10:56.085Z,91.18
2018-09-26T03:13:24.198Z,91.63
2018-09-26T03:15:52.400Z,91.41
2018-09-26T03:18:20.547Z,91.35
2018-09-26T03:20:48.652Z,90.99
2018-09-26T03:23:16.971Z,90.48
2018-09-26T03:25:45.095Z,90.56
2018-09-26T03:28:13.233Z,91.26
2018-09-26T03:30:41.348Z,91.47
2018-09-26T03:33:09.432Z,90.85
2018-09-26T03:35:37.560Z,90.53
2018-09-26T03:38:05.649Z,90.71
2018-09-26T03:40:33.713Z,91.27
2018-09-26T03:43:01.812Z,90.73
2018-09-26T03:45:29.927Z,90.69
2018-09-26T03:47:58.156Z,90.31
2018-09-26T03:50:26.224Z,90.30
2018-09-26T03:52:54.348Z,90.62
2018-09-26T03:55:22.465Z,90.50
2018-09-26T03:57:50.596Z,90.28
2018-09-26T04:00:18.694Z,90.62
2018-09-26T04:02:46.828Z,90.56
2018-09-26T04:05:15.010Z,90.03
2018-09-26T04:07:43.109Z,89.83
2018-09-26T04:10:11.207Z,89.76
2018-09-26T04:12:39.451Z,89.90
2018-09-26T04:15:07.492Z,89.78
2018-09-26T04:17:35.686Z,89.99
2018-09-26T04:20:03.792Z,90.06
2018-09-26T04:22:31.932Z,89.94
2018-09-26T04:25:00.045Z,89.89
2018-09-26T04:27:28.310Z,90.04
2018-09-26T04:29:56.324Z,89.44
2018-09-26T04:32:24.549Z,89.88
2018-09-26T04:34:52.590Z,89.14
2018-09-26T04:37:20.728Z,89.22
2018-09-26T04:39:48.847Z,89.85
2018-09-26T04:42:16.983Z,89.64
2018-09-26T04:44:45.093Z,89.92
2018-09-26T04:47:13.893Z,89.32
2018-09-26T04:49:44.817Z,89.58
2018-09-26T04:52:12.990Z,89.06
2018-09-26T04:54:41.129Z,89.65
2018-09-26T04:57:09.245Z,88.97
2018-09-26T04:59:37.393Z,88.75
2018-09-26T05:02:05.516Z,89.21
2018-09-26T05:04:33.621Z,89.43
2018-09-26T05:07:01.764Z,88.99
2018-09-26T05:09:29.905Z,89.69
2018-09-26T05:11:58.032Z,89.43
2018-09-26T05:14:26.177Z,89.33
2018-09-26T05:16:54.300Z,88.80
2018-09-26T05:19:22.445Z,89.28
2018-09-26T05:21:50.588Z,89.88
2018-09-26T05:24:18.704Z,89.15
2018-09-26T05:26:46.883Z,89.46
2018-09-26T05:29:14.996Z,89.79
2018-09-26T05:31:43.145Z,89.96
2018-09-26T05:34:11.272Z,89.18
2018-09-26T05:36:39.417Z,89.70
2018-09-26T05:39:09.618Z,89.46
2018-09-26T05:41:37.764Z,89.12
2018-09-26T05:44:05.888Z,89.17
2018-09-26T05:46:34.022Z,89.57
2018-09-26T05:49:02.167Z,89.46
2018-09-26T05:51:30.350Z,88.54
2018-09-26T05:53:58.440Z,89.47
2018-09-26T05:56:26.764Z,89.04
2018-09-26T05:58:54.900Z,88.34
2018-09-26T06:01:23.062Z,88.44
2018-09-26T06:03:51.216Z,88.40
2018-09-26T06:06:19.355Z,87.73
2018-09-26T06:08:47.495Z,87.62
2018-09-26T06:11:15.632Z,86.84
2018-09-26T06:13:43.996Z,86.76
2018-09-26T06:16:12.148Z,86.71
2018-09-26T06:18:40.587Z,86.57
2018-09-26T06:21:08.719Z,86.41
2018-09-26T06:23:36.880Z,85.81
2018-09-26T06:26:05.013Z,85.50
2018-09-26T06:28:33.117Z,84.64
2018-09-26T06:31:01.250Z,84.87
2018-09-26T06:33:29.376Z,85.15
2018-09-26T06:35:57.552Z,84.75
2018-09-26T06:38:25.873Z,84.97
2018-09-26T06:40:54.104Z,85.09
2018-09-26T06:43:22.240Z,84.64
2018-09-26T06:45:50.373Z,85.56
2018-09-26T06:48:18.565Z,84.70
2018-09-26T06:50:46.748Z,84.83
2018-09-26T06:53:14.926Z,85.35
2018-09-26T06:55:43.006Z,84.66
2018-09-26T06:58:11.159Z,85.80
2018-09-26T07:00:39.289Z,84.70
2018-09-26T07:03:07.470Z,84.85
2018-09-26T07:05:35.586Z,83.79
2018-09-26T07:08:03.748Z,83.06
2018-09-26T07:10:31.903Z,83.66
2018-09-26T07:13:00.056Z,82.89
2018-09-26T07:15:28.236Z,81.73
2018-09-26T07:17:56.340Z,81.05
2018-09-26T07:20:24.448Z,81.23
2018-09-26T07:22:52.781Z,79.90
2018-09-26T07:25:20.936Z,76.65
2018-09-26T07:27:49.039Z,76.00
2018-09-26T07:30:17.388Z,74.60
2018-09-26T07:32:45.521Z,74.52
2018-09-26T07:35:13.660Z,74.69
2018-09-26T07:37:41.800Z,73.30
2018-09-26T07:40:09.945Z,75.12
2018-09-26T07:42:38.081Z,73.80
2018-09-26T07:45:06.202Z,72.79
2018-09-26T07:47:34.349Z,73.76
2018-09-26T07:50:02.511Z,72.28
2018-09-26T07:52:30.674Z,72.27
2018-09-26T07:54:58.801Z,73.12
2018-09-26T07:57:26.928Z,71.53
2018-09-26T07:59:55.060Z,71.54
2018-09-26T08:02:23.164Z,71.16
2018-09-26T08:04:51.335Z,71.34
2018-09-26T08:07:19.513Z,71.48
2018-09-26T08:09:47.639Z,70.40
2018-09-26T08:12:15.810Z,70.51
2018-09-26T08:14:43.962Z,69.96
2018-09-26T08:17:12.094Z,69.67
2018-09-26T08:19:40.242Z,69.71
2018-09-26T08:22:08.377Z,68.64
2018-09-26T08:24:36.528Z,68.20
2018-09-26T08:27:04.676Z,69.17
2018-09-26T08:29:32.838Z,69.78
2018-09-26T08:32:00.965Z,68.65
2018-09-26T08:34:29.153Z,68.91
2018-09-26T08:36:57.252Z,68.41
2018-09-26T08:39:25.408Z,69.16
2018-09-26T08:41:53.577Z,67.44
2018-09-26T08:44:21.729Z,68.27
2018-09-26T08:46:49.869Z,67.78
2018-09-26T08:49:18.017Z,67.40
2018-09-26T08:51:46.132Z,66.83
2018-09-26T08:54:14.276Z,67.36
2018-09-26T08:56:42.388Z,66.48
2018-09-26T08:59:10.536Z,66.42
2018-09-26T09:01:43.989Z,66.58
2018-09-26T09:04:12.132Z,66.71
2018-09-26T09:06:40.302Z,66.49
2018-09-26T09:09:08.959Z,65.80
2018-09-26T09:11:37.470Z,66.87
2018-09-26T09:14:05.600Z,65.99
2018-09-26T09:16:34.016Z,65.64
2018-09-26T09:19:02.232Z,64.95
2018-09-26T09:21:30.397Z,66.05
2018-09-26T09:23:58.578Z,64.91
2018-09-26T09:26:26.745Z,65.17
2018-09-26T09:28:55.002Z,65.28
2018-09-26T09:31:23.241Z,65.53
2018-09-26T09:33:51.376Z,65.22
2018-09-26T09:36:19.498Z,65.36
2018-09-26T09:38:47.688Z,64.76
2018-09-26T09:41:15.835Z,64.21
2018-09-26T09:43:44.024Z,65.01
2018-09-26T09:46:12.166Z,64.30
2018-09-26T09:48:40.308Z,65.33
2018-09-26T09:51:08.433Z,65.48
2018-09-26T09:53:36.584Z,65.00
2018-09-26T09:56:04.762Z,65.78
2018-09-26T09:58:32.891Z,65.93
2018-09-26T10:01:06.317Z,65.88
2018-09-26T10:03:34.468Z,64.84
2018-09-26T10:06:02.637Z,65.90
2018-09-26T10:08:30.808Z,65.75
2018-09-26T10:10:58.945Z,64.66
2018-09-26T10:13:27.109Z,64.98
2018-09-26T10:15:55.196Z,64.29
2018-09-26T10:18:23.359Z,65.30
2018-09-26T10:20:51.538Z,65.25
2018-09-26T10:23:19.712Z,64.20
2018-09-26T10:25:47.877Z,64.62
2018-09-26T10:28:16.030Z,64.38
2018-09-26T10:30:44.161Z,64.80
2018-09-26T10:33:12.319Z,64.66
2018-09-26T10:35:40.421Z,64.48
2018-09-26T10:38:08.605Z,65.26
2018-09-26T10:40:36.752Z,64.65
2018-09-26T10:43:04.892Z,64.24
2018-09-26T10:45:33.061Z,64.13
2018-09-26T10:48:01.186Z,63.54
2018-09-26T10:50:29.321Z,63.72
2018-09-26T10:52:57.464Z,63.84
2018-09-26T10:55:25.580Z,64.45
2018-09-26T10:57:53.739Z,64.45
2018-09-26T11:00:21.888Z,65.22
2018-09-26T11:02:50.074Z,64.11
2018-09-26T11:05:18.190Z,64.95
2018-09-26T11:07:46.334Z,64.34
2018-09-26T11:10:14.517Z,64.46
2018-09-26T11:12:42.733Z,64.84
2018-09-26T11:15:10.852Z,65.24
2018-09-26T11:17:38.964Z,64.55
2018-09-26T11:20:07.564Z,65.24
2018-09-26T11:22:35.905Z,65.34
2018-09-26T11:25:04.112Z,64.34
2018-09-26T11:27:32.276Z,64.64
2018-09-26T11:30:00.468Z,63.77
2018-09-26T11:32:28.691Z,63.76
2018-09-26T11:34:56.877Z,63.75
2018-09-26T11:37:25.025Z,63.54
2018-09-26T11:39:54.069Z,63.99
2018-09-26T11:42:22.257Z,63.48
2018-09-26T11:44:50.539Z,64.14
2018-09-26T11:47:18.677Z,64.19
2018-09-26T11:49:46.804Z,64.74
2018-09-26T11:52:15.056Z,64.46
2018-09-26T11:54:43.161Z,64.69
2018-09-26T11:57:11.331Z,63.61
2018-09-26T11:59:39.483Z,64.11
2018-09-26T12:02:07.691Z,62.81
2018-09-26T12:04:35.854Z,63.55
2018-09-26T12:07:04.319Z,63.93
2018-09-26T12:09:32.627Z,63.57
2018-09-26T12:12:00.769Z,63.67
2018-09-26T12:14:28.892Z,63.89
2018-09-26T12:16:57.037Z,62.44
2018-09-26T12:19:25.236Z,62.43
2018-09-26T12:21:53.442Z,60.33
2018-09-26T12:24:21.589Z,59.57
2018-09-26T12:26:49.652Z,60.24
2018-09-26T12:29:17.818Z,59.04
2018-09-26T12:31:45.963Z,58.44
2018-09-26T12:34:14.142Z,58.47
2018-09-26T12:36:42.278Z,58.54
2018-09-26T12:39:11.065Z,58.12
2018-09-26T12:41:39.351Z,58.05
2018-09-26T12:44:07.510Z,58.93
2018-09-26T12:46:35.690Z,58.99
2018-09-26T12:49:03.872Z,59.21
2018-09-26T12:51:32.048Z,57.87
2018-09-26T12:54:00.261Z,58.68
2018-09-26T12:56:28.351Z,57.87
2018-09-26T12:58:56.540Z,57.51
2018-09-26T13:01:24.672Z,57.91
2018-09-26T13:03:52.844Z,57.76
2018-09-26T13:06:21.034Z,57.87
2018-09-26T13:08:49.177Z,57.33
2018-09-26T13:11:17.329Z,58.38
2018-09-26T13:13:45.489Z,58.45
2018-09-26T13:16:13.692Z,58.66
2018-09-26T13:18:41.783Z,58.10
2018-09-26T13:21:09.956Z,59.34
2018-09-26T13:28:37.292Z,59.87
2018-09-26T13:31:05.501Z,60.46
2018-09-26T13:33:33.637Z,60.33
2018-09-26T13:36:01.836Z,59.98
2018-09-26T13:38:30.013Z,61.12
2018-09-26T13:40:58.178Z,60.48
2018-09-26T13:43:26.341Z,59.53
2018-09-26T13:45:54.596Z,59.77
2018-09-26T13:48:22.666Z,60.07
2018-09-26T13:50:50.877Z,59.42
2018-09-26T13:53:19.004Z,59.96
2018-09-26T13:55:47.187Z,58.72
2018-09-26T13:58:15.378Z,58.94
2018-09-26T14:00:43.596Z,59.07
2018-09-26T14:03:11.705Z,58.73
2018-09-26T14:05:39.837Z,58.25
2018-09-26T14:08:07.993Z,59.07
2018-09-26T14:10:36.183Z,58.83
2018-09-26T14:13:04.325Z,58.96
2018-09-26T14:15:32.475Z,59.25
2018-09-26T14:18:00.644Z,59.69
2018-09-26T14:20:28.985Z,59.46
2018-09-26T14:22:57.189Z,60.11
2018-09-26T14:25:25.265Z,60.20
2018-09-26T14:27:53.382Z,59.98
2018-09-26T14:30:21.651Z,59.42
2018-09-26T14:32:49.763Z,60.16
2018-09-26T14:35:17.977Z,60.52
2018-09-26T14:37:46.086Z,60.77
2018-09-26T14:40:14.251Z,61.10
2018-09-26T14:42:42.418Z,61.22
2018-09-26T14:45:10.615Z,60.85
2018-09-26T14:47:38.777Z,61.01
2018-09-26T14:50:07.659Z,60.48
2018-09-26T14:52:35.869Z,60.90
2018-09-26T14:55:04.041Z,62.06
2018-09-26T14:57:32.167Z,61.53
2018-09-26T15:00:00.316Z,62.01
2018-09-26T15:02:28.477Z,62.02
2018-09-26T15:04:56.687Z,62.09
2018-09-26T15:07:24.846Z,61.86
2018-09-26T15:09:53.040Z,61.95
2018-09-26T15:12:21.221Z,61.81
2018-09-26T15:14:49.281Z,62.86
2018-09-26T15:17:17.428Z,62.96
2018-09-26T15:19:45.569Z,62.57
2018-09-26T15:22:13.792Z,62.94
2018-09-26T15:24:41.913Z,62.94
2018-09-26T15:27:10.101Z,62.70
2018-09-26T15:29:38.245Z,63.48
2018-09-26T15:32:06.400Z,63.23
2018-09-26T15:34:34.516Z,63.13
2018-09-26T15:37:02.693Z,64.02
2018-09-26T15:39:37.149Z,63.82
2018-09-26T15:42:05.337Z,63.80
2018-09-26T15:44:33.476Z,64.04
2018-09-26T15:47:01.660Z,64.08
2018-09-26T15:49:29.818Z,64.42
2018-09-26T15:51:57.963Z,64.48
2018-09-26T15:54:26.293Z,64.33
2018-09-26T15:56:54.767Z,64.23
2018-09-26T15:59:22.884Z,64.79
2018-09-26T16:01:52.175Z,65.20
2018-09-26T16:04:20.417Z,65.07
2018-09-26T16:06:48.505Z,65.68
2018-09-26T16:09:16.781Z,65.88
2018-09-26T16:11:44.892Z,66.29
2018-09-26T16:14:13.112Z,66.53
2018-09-26T16:16:41.261Z,67.16
2018-09-26T16:19:09.468Z,67.56
2018-09-26T16:21:37.637Z,68.37
2018-09-26T16:24:05.900Z,68.74
2018-09-26T16:26:34.089Z,68.89
2018-09-26T16:29:02.233Z,69.14
2018-09-26T16:31:30.489Z,69.57
2018-09-26T16:33:58.628Z,69.32
2018-09-26T16:36:26.740Z,69.66
2018-09-26T16:38:54.943Z,70.12
2018-09-26T16:41:23.124Z,70.98
2018-09-26T16:43:51.274Z,71.65
2018-09-26T16:46:19.483Z,72.35
2018-09-26T16:48:47.649Z,72.41
2018-09-26T16:51:15.765Z,72.96
2018-09-26T16:53:44.046Z,73.80
2018-09-26T16:56:12.150Z,74.77
2018-09-26T16:58:40.349Z,75.18
2018-09-26T17:01:08.498Z,76.29
2018-09-26T17:03:36.624Z,76.31
2018-09-26T17:06:04.843Z,76.91
2018-09-26T17:08:32.984Z,77.30
2018-09-26T17:11:01.118Z,77.74
2018-09-26T17:13:29.277Z,78.14
2018-09-26T17:15:57.441Z,77.95
2018-09-26T17:18:25.680Z,78.58
2018-09-26T17:20:53.753Z,78.47
2018-09-26T17:23:21.968Z,78.67
2018-09-26T17:25:50.117Z,78.81
2018-09-26T17:28:18.364Z,79.08
2018-09-26T17:30:46.499Z,79.17
2018-09-26T17:33:14.668Z,79.27
2018-09-26T17:35:42.780Z,79.39
2018-09-26T17:38:10.936Z,78.82
2018-09-26T17:40:39.103Z,78.59
2018-09-26T17:43:07.610Z,78.32
2018-09-26T17:45:35.784Z,78.11
2018-09-26T17:48:03.937Z,77.72
2018-09-26T17:50:32.085Z,77.97
2018-09-26T17:53:00.249Z,77.78
2018-09-26T17:55:28.488Z,77.43
2018-09-26T17:57:56.652Z,77.11
2018-09-26T18:00:24.851Z,76.88
2018-09-26T18:02:52.925Z,76.97
2018-09-26T18:05:21.189Z,76.72
2018-09-26T18:07:49.842Z,76.87
2018-09-26T18:10:17.981Z,77.15
2018-09-26T18:12:46.136Z,76.57
2018-09-26T18:15:14.268Z,76.09
2018-09-26T18:17:42.403Z,75.82
2018-09-26T18:20:10.529Z,75.44
2018-09-26T18:22:38.687Z,75.30
2018-09-26T18:25:06.876Z,75.60
2018-09-26T18:27:35.031Z,74.79
2018-09-26T18:30:03.146Z,74.86
2018-09-26T18:32:31.297Z,75.20
2018-09-26T18:34:59.448Z,74.90
2018-09-26T18:37:27.602Z,74.05
2018-09-26T18:39:55.734Z,74.19
2018-09-26T18:42:23.877Z,74.03
2018-09-26T18:44:52.121Z,73.94
2018-09-26T18:47:20.211Z,73.74
2018-09-26T18:49:48.386Z,73.62
2018-09-26T18:52:16.524Z,73.79
2018-09-26T18:54:44.652Z,73.96
2018-09-26T18:57:12.889Z,73.74
2018-09-26T18:59:41.090Z,73.67
2018-09-26T19:02:09.217Z,74.00
2018-09-26T19:04:37.449Z,73.85
2018-09-26T19:07:05.648Z,74.59
2018-09-26T19:09:33.823Z,74.20
2018-09-26T19:12:02.045Z,74.01
2018-09-26T19:14:30.170Z,74.06
2018-09-26T19:16:58.293Z,74.42
2018-09-26T19:19:26.445Z,74.46
2018-09-26T19:21:54.661Z,74.46
2018-09-26T19:24:22.788Z,74.27
2018-09-26T19:26:50.939Z,74.01
2018-09-26T19:29:19.084Z,74.96
2018-09-26T19:31:47.248Z,75.14
2018-09-26T19:34:15.364Z,74.96
2018-09-26T19:36:43.484Z,75.11
2018-09-26T19:39:12.031Z,75.55
2018-09-26T19:41:40.405Z,75.35
2018-09-26T19:44:08.644Z,75.78
2018-09-26T19:46:36.789Z,76.20
2018-09-26T19:49:04.960Z,76.35
2018-09-26T19:51:33.206Z,76.59
2018-09-26T19:54:01.343Z,77.18
2018-09-26T19:56:29.484Z,77.45
2018-09-26T19:58:57.604Z,77.44
2018-09-26T20:01:25.794Z,77.69
2018-09-26T20:03:54.082Z,77.92
2018-09-26T20:06:22.231Z,77.66
2018-09-26T20:08:50.516Z,78.36
2018-09-26T20:11:18.651Z,78.60
2018-09-26T20:13:46.777Z,78.91
2018-09-26T20:16:14.927Z,78.77
2018-09-26T20:18:43.077Z,79.35
2018-09-26T20:21:11.233Z,79.99
2018-09-26T20:23:39.378Z,80.69
2018-09-26T20:26:07.513Z,80.54
2018-09-26T20:28:35.663Z,81.11
2018-09-26T20:31:03.871Z,81.22
2018-09-26T20:33:31.976Z,81.67
2018-09-26T20:36:00.155Z,82.19
2018-09-26T20:38:28.296Z,82.56
2018-09-26T20:40:56.445Z,82.99
2018-09-26T20:43:24.580Z,83.93
2018-09-26T20:45:52.733Z,84.29
2018-09-26T20:48:20.856Z,85.16
2018-09-26T20:50:48.989Z,86.13
2018-09-26T20:53:17.105Z,86.89
2018-09-26T20:55:45.270Z,87.75
2018-09-26T20:58:13.410Z,88.13
2018-09-26T21:00:41.620Z,88.01
2018-09-26T21:03:09.662Z,87.87
2018-09-26T21:05:37.794Z,88.10
2018-09-26T21:08:05.963Z,88.55
2018-09-26T21:10:34.088Z,88.34
2018-09-26T21:13:02.294Z,89.05
2018-09-26T21:15:30.411Z,89.45
2018-09-26T21:17:58.630Z,89.62
2018-09-26T21:20:26.701Z,89.79
2018-09-26T21:22:54.858Z,89.90
2018-09-26T21:25:22.989Z,89.65
2018-09-26T21:27:51.132Z,90.58
2018-09-26T21:30:19.285Z,89.63
2018-09-26T21:32:47.397Z,89.50
2018-09-26T21:35:15.546Z,89.87
2018-09-26T21:37:43.708Z,89.76
2018-09-26T21:40:11.876Z,89.56
2018-09-26T21:42:40.051Z,89.92
2018-09-26T21:45:08.233Z,89.78
2018-09-26T21:47:36.376Z,90.05
2018-09-26T21:50:04.546Z,90.13
2018-09-26T21:52:32.669Z,89.83
2018-09-26T21:55:00.908Z,89.44
2018-09-26T21:57:29.101Z,89.53
2018-09-26T21:59:57.368Z,89.48
2018-09-26T22:02:25.485Z,89.44
2018-09-26T22:04:53.621Z,89.67
2018-09-26T22:07:21.804Z,89.48
2018-09-26T22:09:49.971Z,89.23
2018-09-26T22:12:18.120Z,89.47
2018-09-26T22:14:46.279Z,89.86
2018-09-26T22:17:14.408Z,90.01
2018-09-26T22:19:42.565Z,89.96
2018-09-26T22:22:10.717Z,90.37
2018-09-26T22:24:38.890Z,90.70
2018-09-26T22:27:07.033Z,90.68
2018-09-26T22:29:35.154Z,90.86
2018-09-26T22:32:03.260Z,90.88
2018-09-26T22:34:31.397Z,91.04
2018-09-26T22:36:59.514Z,91.98
2018-09-26T22:39:27.660Z,92.20
2018-09-26T22:41:55.795Z,92.20
2018-09-26T22:44:23.933Z,92.40
2018-09-26T22:46:52.058Z,91.62
2018-09-26T22:49:20.209Z,92.25
2018-09-26T22:51:48.371Z,92.42
2018-09-26T22:54:16.524Z,92.49
2018-09-26T22:56:44.647Z,92.88
2018-09-26T22:59:12.790Z,92.89
2018-09-26T23:01:40.928Z,92.66
2018-09-26T23:04:09.076Z,92.47
2018-09-26T23:06:37.277Z,93.08
2018-09-26T23:09:08.294Z,92.71
2018-09-26T23:11:36.432Z,92.77
2018-09-26T23:14:04.557Z,92.99
2018-09-26T23:16:32.692Z,92.41
2018-09-26T23:19:00.864Z,92.88
2018-09-26T23:21:29.026Z,93.35
2018-09-26T23:23:57.150Z,93.85
2018-09-26T23:26:25.284Z,93.64
2018-09-26T23:28:53.434Z,93.84
2018-09-26T23:31:21.606Z,93.97
2018-09-26T23:33:49.749Z,94.24
2018-09-26T23:36:17.906Z,94.17
2018-09-26T23:38:46.044Z,94.21
2018-09-26T23:41:14.196Z,94.78
2018-09-26T23:48:42.713Z,94.79
2018-09-26T23:51:10.805Z,94.94
2018-09-26T23:53:40.077Z,95.40
2018-09-26T23:56:08.181Z,94.98
2018-09-26T23:58:36.328Z,95.60
